sensor_id;sensor_type;location;lat;lon;timestamp;temperature;humidity
47540;DHT22;33280;52.152;21.052;2023-04-06T00:00:33;2.70;99.90
47540;DHT22;33280;52.152;21.052;2023-04-06T00:03:01;2.70;99.90
47540;DHT22;33280;52.152;21.052;2023-04-06T00:05:28;2.70;99.90
47540;DHT22;33280;52.152;21.052;2023-04-06T00:07:57;2.70;99.90
47540;DHT22;33280;52.152;21.052;2023-04-06T00:10:25;2.70;99.90
47540;DHT22;33280;52.152;21.052;2023-04-06T00:12:54;2.60;99.90
47540;DHT22;33280;52.152;21.052;2023-04-06T00:15:23;2.60;99.90
47540;DHT22;33280;52.152;21.052;2023-04-06T00:17:50;2.60;99.90
47540;DHT22;33280;52.152;21.052;2023-04-06T00:20:18;2.60;99.90
47540;DHT22;33280;52.152;21.052;2023-04-06T00:22:45;2.50;99.90
47540;DHT22;33280;52.152;21.052;2023-04-06T00:25:12;2.50;99.90
47540;DHT22;33280;52.152;21.052;2023-04-06T00:27:39;2.40;99.90
47540;DHT22;33280;52.152;21.052;2023-04-06T00:30:07;2.40;99.90
47540;DHT22;33280;52.152;21.052;2023-04-06T00:32:35;2.40;99.90
47540;DHT22;33280;52.152;21.052;2023-04-06T00:35:03;2.50;99.90
47540;DHT22;33280;52.152;21.052;2023-04-06T00:37:30;2.40;99.90
47540;DHT22;33280;52.152;21.052;2023-04-06T00:39:57;2.40;99.90
47540;DHT22;33280;52.152;21.052;2023-04-06T00:42:24;2.50;99.90
47540;DHT22;33280;52.152;21.052;2023-04-06T00:44:53;2.40;99.90
47540;DHT22;33280;52.152;21.052;2023-04-06T00:47:22;2.40;99.90
47540;DHT22;33280;52.152;21.052;2023-04-06T00:49:49;2.40;99.90
47540;DHT22;33280;52.152;21.052;2023-04-06T00:52:16;2.50;99.90
47540;DHT22;33280;52.152;21.052;2023-04-06T00:54:43;2.50;99.90
47540;DHT22;33280;52.152;21.052;2023-04-06T00:57:14;2.50;99.90
47540;DHT22;33280;52.152;21.052;2023-04-06T00:59:42;2.40;99.90
47540;DHT22;33280;52.152;21.052;2023-04-06T01:02:09;2.50;99.90
47540;DHT22;33280;52.152;21.052;2023-04-06T01:04:37;2.50;99.90
47540;DHT22;33280;52.152;21.052;2023-04-06T01:07:03;2.50;99.90
47540;DHT22;33280;52.152;21.052;2023-04-06T01:09:31;2.60;99.90
47540;DHT22;33280;52.152;21.052;2023-04-06T01:11:58;2.50;99.90
47540;DHT22;33280;52.152;21.052;2023-04-06T01:14:25;2.50;99.90
47540;DHT22;33280;52.152;21.052;2023-04-06T01:16:53;2.60;99.90
47540;DHT22;33280;52.152;21.052;2023-04-06T01:19:22;2.50;99.90
47540;DHT22;33280;52.152;21.052;2023-04-06T01:21:49;2.50;99.90
47540;DHT22;33280;52.152;21.052;2023-04-06T01:24:17;2.50;99.90
47540;DHT22;33280;52.152;21.052;2023-04-06T01:26:44;2.50;99.90
47540;DHT22;33280;52.152;21.052;2023-04-06T01:29:11;2.60;99.90
47540;DHT22;33280;52.152;21.052;2023-04-06T01:31:39;2.60;99.90
47540;DHT22;33280;52.152;21.052;2023-04-06T01:34:06;2.60;99.90
47540;DHT22;33280;52.152;21.052;2023-04-06T01:36:33;2.60;99.90
47540;DHT22;33280;52.152;21.052;2023-04-06T01:39:01;2.60;99.90
47540;DHT22;33280;52.152;21.052;2023-04-06T01:41:28;2.60;99.90
47540;DHT22;33280;52.152;21.052;2023-04-06T01:43:54;2.70;99.90
47540;DHT22;33280;52.152;21.052;2023-04-06T01:46:21;2.70;99.90
47540;DHT22;33280;52.152;21.052;2023-04-06T01:48:48;2.60;99.90
47540;DHT22;33280;52.152;21.052;2023-04-06T01:51:16;2.70;99.90
47540;DHT22;33280;52.152;21.052;2023-04-06T01:53:43;2.70;99.90
47540;DHT22;33280;52.152;21.052;2023-04-06T01:56:10;2.70;99.90
47540;DHT22;33280;52.152;21.052;2023-04-06T01:58:36;2.70;99.90
47540;DHT22;33280;52.152;21.052;2023-04-06T02:01:03;2.70;99.90
47540;DHT22;33280;52.152;21.052;2023-04-06T02:03:30;2.70;99.90
47540;DHT22;33280;52.152;21.052;2023-04-06T02:05:58;2.70;99.90
47540;DHT22;33280;52.152;21.052;2023-04-06T02:08:26;2.70;99.90
47540;DHT22;33280;52.152;21.052;2023-04-06T02:10:53;2.80;99.90
47540;DHT22;33280;52.152;21.052;2023-04-06T02:13:24;2.80;99.90
47540;DHT22;33280;52.152;21.052;2023-04-06T02:15:51;2.80;99.90
47540;DHT22;33280;52.152;21.052;2023-04-06T02:18:18;2.70;99.90
47540;DHT22;33280;52.152;21.052;2023-04-06T02:20:45;2.60;99.90
47540;DHT22;33280;52.152;21.052;2023-04-06T02:23:12;2.60;99.90
47540;DHT22;33280;52.152;21.052;2023-04-06T02:25:42;2.60;99.90
47540;DHT22;33280;52.152;21.052;2023-04-06T02:28:09;2.50;99.90
47540;DHT22;33280;52.152;21.052;2023-04-06T02:30:36;2.60;99.90
47540;DHT22;33280;52.152;21.052;2023-04-06T02:33:03;2.50;99.90
47540;DHT22;33280;52.152;21.052;2023-04-06T02:35:30;2.60;99.90
47540;DHT22;33280;52.152;21.052;2023-04-06T02:37:58;2.50;99.90
47540;DHT22;33280;52.152;21.052;2023-04-06T02:40:25;2.60;99.90
47540;DHT22;33280;52.152;21.052;2023-04-06T02:42:52;2.60;99.90
47540;DHT22;33280;52.152;21.052;2023-04-06T02:45:19;2.60;99.90
47540;DHT22;33280;52.152;21.052;2023-04-06T02:47:49;2.60;99.90
47540;DHT22;33280;52.152;21.052;2023-04-06T02:50:16;2.50;99.90
47540;DHT22;33280;52.152;21.052;2023-04-06T02:52:43;2.50;99.90
47540;DHT22;33280;52.152;21.052;2023-04-06T02:55:10;2.50;99.90
47540;DHT22;33280;52.152;21.052;2023-04-06T02:57:37;2.50;99.90
47540;DHT22;33280;52.152;21.052;2023-04-06T03:00:04;2.50;99.90
47540;DHT22;33280;52.152;21.052;2023-04-06T03:02:31;2.50;99.90
47540;DHT22;33280;52.152;21.052;2023-04-06T03:04:58;2.40;99.90
47540;DHT22;33280;52.152;21.052;2023-04-06T03:07:25;2.40;99.90
47540;DHT22;33280;52.152;21.052;2023-04-06T03:09:52;2.40;99.90
47540;DHT22;33280;52.152;21.052;2023-04-06T03:12:19;2.40;99.90
47540;DHT22;33280;52.152;21.052;2023-04-06T03:14:46;2.50;99.90
47540;DHT22;33280;52.152;21.052;2023-04-06T03:17:13;2.40;99.90
47540;DHT22;33280;52.152;21.052;2023-04-06T03:19:40;2.40;99.90
47540;DHT22;33280;52.152;21.052;2023-04-06T03:22:06;2.30;99.90
47540;DHT22;33280;52.152;21.052;2023-04-06T03:24:33;2.30;99.90
47540;DHT22;33280;52.152;21.052;2023-04-06T03:27:00;2.30;99.90
47540;DHT22;33280;52.152;21.052;2023-04-06T03:29:27;2.30;99.90
47540;DHT22;33280;52.152;21.052;2023-04-06T03:31:54;2.30;99.90
47540;DHT22;33280;52.152;21.052;2023-04-06T03:34:21;2.30;99.90
47540;DHT22;33280;52.152;21.052;2023-04-06T03:36:48;2.30;99.90
47540;DHT22;33280;52.152;21.052;2023-04-06T03:39:32;2.20;99.90
47540;DHT22;33280;52.152;21.052;2023-04-06T03:41:59;2.20;99.90
47540;DHT22;33280;52.152;21.052;2023-04-06T03:44:26;2.20;99.90
47540;DHT22;33280;52.152;21.052;2023-04-06T03:46:53;2.20;99.90
47540;DHT22;33280;52.152;21.052;2023-04-06T03:49:20;2.20;99.90
47540;DHT22;33280;52.152;21.052;2023-04-06T03:51:47;2.20;99.90
47540;DHT22;33280;52.152;21.052;2023-04-06T03:54:14;2.20;99.90
47540;DHT22;33280;52.152;21.052;2023-04-06T03:56:44;2.10;99.90
47540;DHT22;33280;52.152;21.052;2023-04-06T03:59:11;2.00;99.90
47540;DHT22;33280;52.152;21.052;2023-04-06T04:01:38;2.10;99.90
47540;DHT22;33280;52.152;21.052;2023-04-06T04:04:06;2.00;99.90
47540;DHT22;33280;52.152;21.052;2023-04-06T04:06:33;2.00;99.90
47540;DHT22;33280;52.152;21.052;2023-04-06T04:09:04;2.00;99.90
47540;DHT22;33280;52.152;21.052;2023-04-06T04:11:31;2.00;99.90
47540;DHT22;33280;52.152;21.052;2023-04-06T04:14:13;2.10;99.90
47540;DHT22;33280;52.152;21.052;2023-04-06T04:16:59;2.00;99.90
47540;DHT22;33280;52.152;21.052;2023-04-06T04:19:46;2.10;99.90
47540;DHT22;33280;52.152;21.052;2023-04-06T04:22:26;2.00;99.90
47540;DHT22;33280;52.152;21.052;2023-04-06T04:24:56;2.00;99.90
47540;DHT22;33280;52.152;21.052;2023-04-06T04:27:23;1.90;99.90
47540;DHT22;33280;52.152;21.052;2023-04-06T04:29:50;1.80;99.90
47540;DHT22;33280;52.152;21.052;2023-04-06T04:32:18;1.90;99.90
47540;DHT22;33280;52.152;21.052;2023-04-06T04:34:47;1.90;99.90
47540;DHT22;33280;52.152;21.052;2023-04-06T04:37:16;2.00;99.90
47540;DHT22;33280;52.152;21.052;2023-04-06T04:39:44;2.10;99.90
47540;DHT22;33280;52.152;21.052;2023-04-06T04:42:11;2.00;99.90
47540;DHT22;33280;52.152;21.052;2023-04-06T04:44:38;2.10;99.90
47540;DHT22;33280;52.152;21.052;2023-04-06T04:47:14;2.10;99.90
47540;DHT22;33280;52.152;21.052;2023-04-06T04:49:42;2.00;99.90
47540;DHT22;33280;52.152;21.052;2023-04-06T04:52:08;2.20;99.90
47540;DHT22;33280;52.152;21.052;2023-04-06T04:54:36;2.20;99.90
47540;DHT22;33280;52.152;21.052;2023-04-06T04:57:02;2.20;99.90
47540;DHT22;33280;52.152;21.052;2023-04-06T04:59:29;2.40;99.90
47540;DHT22;33280;52.152;21.052;2023-04-06T05:02:02;2.30;99.90
47540;DHT22;33280;52.152;21.052;2023-04-06T05:04:30;2.30;99.90
47540;DHT22;33280;52.152;21.052;2023-04-06T05:07:04;2.50;99.90
47540;DHT22;33280;52.152;21.052;2023-04-06T05:09:31;2.50;99.90
47540;DHT22;33280;52.152;21.052;2023-04-06T05:11:59;2.40;99.90
47540;DHT22;33280;52.152;21.052;2023-04-06T05:14:27;2.50;99.90
47540;DHT22;33280;52.152;21.052;2023-04-06T05:16:54;2.40;99.90
47540;DHT22;33280;52.152;21.052;2023-04-06T05:19:21;2.60;99.90
47540;DHT22;33280;52.152;21.052;2023-04-06T05:21:48;2.50;99.90
47540;DHT22;33280;52.152;21.052;2023-04-06T05:24:15;2.40;99.90
47540;DHT22;33280;52.152;21.052;2023-04-06T05:26:42;2.30;99.90
47540;DHT22;33280;52.152;21.052;2023-04-06T05:29:13;2.40;99.90
47540;DHT22;33280;52.152;21.052;2023-04-06T05:31:43;2.40;99.90
47540;DHT22;33280;52.152;21.052;2023-04-06T05:34:42;2.50;99.90
47540;DHT22;33280;52.152;21.052;2023-04-06T05:37:09;2.60;99.90
47540;DHT22;33280;52.152;21.052;2023-04-06T05:39:36;2.60;99.90
47540;DHT22;33280;52.152;21.052;2023-04-06T05:42:04;2.70;99.90
47540;DHT22;33280;52.152;21.052;2023-04-06T05:44:33;2.70;99.90
47540;DHT22;33280;52.152;21.052;2023-04-06T05:47:00;2.80;99.90
47540;DHT22;33280;52.152;21.052;2023-04-06T05:49:27;2.80;99.90
47540;DHT22;33280;52.152;21.052;2023-04-06T05:51:55;2.90;99.90
47540;DHT22;33280;52.152;21.052;2023-04-06T05:54:22;2.90;99.90
47540;DHT22;33280;52.152;21.052;2023-04-06T05:56:49;3.10;99.90
47540;DHT22;33280;52.152;21.052;2023-04-06T05:59:15;3.20;99.90
47540;DHT22;33280;52.152;21.052;2023-04-06T06:01:43;3.20;99.90
47540;DHT22;33280;52.152;21.052;2023-04-06T06:04:10;3.30;99.90
47540;DHT22;33280;52.152;21.052;2023-04-06T06:06:37;3.20;99.90
47540;DHT22;33280;52.152;21.052;2023-04-06T06:09:04;3.20;99.90
47540;DHT22;33280;52.152;21.052;2023-04-06T06:11:31;3.20;99.90
47540;DHT22;33280;52.152;21.052;2023-04-06T06:14:00;3.20;99.90
47540;DHT22;33280;52.152;21.052;2023-04-06T06:16:27;3.30;99.90
47540;DHT22;33280;52.152;21.052;2023-04-06T06:18:54;3.30;99.90
47540;DHT22;33280;52.152;21.052;2023-04-06T06:21:21;3.30;99.90
47540;DHT22;33280;52.152;21.052;2023-04-06T06:23:48;3.30;99.90
47540;DHT22;33280;52.152;21.052;2023-04-06T06:26:16;3.30;99.90
47540;DHT22;33280;52.152;21.052;2023-04-06T06:28:43;3.50;99.90
47540;DHT22;33280;52.152;21.052;2023-04-06T06:31:10;3.50;99.90
47540;DHT22;33280;52.152;21.052;2023-04-06T06:33:37;3.40;99.90
47540;DHT22;33280;52.152;21.052;2023-04-06T06:36:04;3.40;99.90
47540;DHT22;33280;52.152;21.052;2023-04-06T06:38:31;3.50;99.90
47540;DHT22;33280;52.152;21.052;2023-04-06T06:40:59;3.50;99.90
47540;DHT22;33280;52.152;21.052;2023-04-06T06:43:29;3.60;99.90
47540;DHT22;33280;52.152;21.052;2023-04-06T06:45:56;3.50;99.90
47540;DHT22;33280;52.152;21.052;2023-04-06T06:48:23;3.40;99.90
47540;DHT22;33280;52.152;21.052;2023-04-06T06:50:50;3.60;99.90
47540;DHT22;33280;52.152;21.052;2023-04-06T06:53:17;3.50;99.90
47540;DHT22;33280;52.152;21.052;2023-04-06T06:55:44;3.60;99.90
47540;DHT22;33280;52.152;21.052;2023-04-06T06:58:12;3.70;99.90
47540;DHT22;33280;52.152;21.052;2023-04-06T07:00:38;3.80;99.90
47540;DHT22;33280;52.152;21.052;2023-04-06T07:03:06;3.90;99.90
47540;DHT22;33280;52.152;21.052;2023-04-06T07:05:33;3.80;99.90
47540;DHT22;33280;52.152;21.052;2023-04-06T07:08:00;3.70;99.90
47540;DHT22;33280;52.152;21.052;2023-04-06T07:10:27;3.70;99.90
47540;DHT22;33280;52.152;21.052;2023-04-06T07:12:54;3.70;99.90
47540;DHT22;33280;52.152;21.052;2023-04-06T07:15:22;3.60;99.90
47540;DHT22;33280;52.152;21.052;2023-04-06T07:17:49;3.60;99.90
47540;DHT22;33280;52.152;21.052;2023-04-06T07:20:16;3.50;99.90
47540;DHT22;33280;52.152;21.052;2023-04-06T07:22:44;3.60;99.90
47540;DHT22;33280;52.152;21.052;2023-04-06T07:25:14;3.50;99.90
47540;DHT22;33280;52.152;21.052;2023-04-06T07:27:42;3.60;99.90
47540;DHT22;33280;52.152;21.052;2023-04-06T07:30:09;3.90;99.90
47540;DHT22;33280;52.152;21.052;2023-04-06T07:32:38;4.00;99.90
47540;DHT22;33280;52.152;21.052;2023-04-06T07:35:06;4.00;99.90
47540;DHT22;33280;52.152;21.052;2023-04-06T07:37:34;3.90;99.90
47540;DHT22;33280;52.152;21.052;2023-04-06T07:40:01;4.00;99.90
47540;DHT22;33280;52.152;21.052;2023-04-06T07:42:28;3.90;99.90
47540;DHT22;33280;52.152;21.052;2023-04-06T07:44:55;3.90;99.90
47540;DHT22;33280;52.152;21.052;2023-04-06T07:47:23;3.90;99.90
47540;DHT22;33280;52.152;21.052;2023-04-06T07:49:50;4.00;99.90
47540;DHT22;33280;52.152;21.052;2023-04-06T07:52:17;4.20;99.90
47540;DHT22;33280;52.152;21.052;2023-04-06T07:54:46;4.30;99.90
47540;DHT22;33280;52.152;21.052;2023-04-06T07:57:13;4.50;99.90
47540;DHT22;33280;52.152;21.052;2023-04-06T07:59:40;4.30;99.90
47540;DHT22;33280;52.152;21.052;2023-04-06T08:02:07;4.30;99.90
47540;DHT22;33280;52.152;21.052;2023-04-06T08:04:35;4.20;99.90
47540;DHT22;33280;52.152;21.052;2023-04-06T08:07:02;4.30;99.90
47540;DHT22;33280;52.152;21.052;2023-04-06T08:09:30;4.50;99.90
47540;DHT22;33280;52.152;21.052;2023-04-06T08:11:57;4.40;99.90
47540;DHT22;33280;52.152;21.052;2023-04-06T08:14:24;4.30;99.90
47540;DHT22;33280;52.152;21.052;2023-04-06T08:16:51;4.30;99.90
47540;DHT22;33280;52.152;21.052;2023-04-06T08:19:18;4.20;99.90
47540;DHT22;33280;52.152;21.052;2023-04-06T08:21:45;4.20;99.90
47540;DHT22;33280;52.152;21.052;2023-04-06T08:24:14;4.10;99.90
47540;DHT22;33280;52.152;21.052;2023-04-06T08:26:42;4.30;99.90
47540;DHT22;33280;52.152;21.052;2023-04-06T08:29:08;4.30;99.90
47540;DHT22;33280;52.152;21.052;2023-04-06T08:31:35;4.30;99.90
47540;DHT22;33280;52.152;21.052;2023-04-06T08:34:03;4.30;99.90
47540;DHT22;33280;52.152;21.052;2023-04-06T08:36:31;4.20;99.90
47540;DHT22;33280;52.152;21.052;2023-04-06T08:38:59;4.30;99.90
47540;DHT22;33280;52.152;21.052;2023-04-06T08:41:27;4.20;99.90
47540;DHT22;33280;52.152;21.052;2023-04-06T08:44:01;4.30;99.90
47540;DHT22;33280;52.152;21.052;2023-04-06T08:46:31;4.20;99.90
47540;DHT22;33280;52.152;21.052;2023-04-06T08:49:00;4.10;99.90
47540;DHT22;33280;52.152;21.052;2023-04-06T08:51:29;4.20;99.90
47540;DHT22;33280;52.152;21.052;2023-04-06T08:53:59;4.20;99.90
47540;DHT22;33280;52.152;21.052;2023-04-06T08:56:27;4.20;99.90
47540;DHT22;33280;52.152;21.052;2023-04-06T08:58:55;4.20;99.90
47540;DHT22;33280;52.152;21.052;2023-04-06T09:01:27;4.30;99.90
47540;DHT22;33280;52.152;21.052;2023-04-06T09:03:59;4.30;99.90
47540;DHT22;33280;52.152;21.052;2023-04-06T09:06:34;4.10;99.90
47540;DHT22;33280;52.152;21.052;2023-04-06T09:09:03;4.30;99.90
47540;DHT22;33280;52.152;21.052;2023-04-06T09:11:48;4.40;99.90
47540;DHT22;33280;52.152;21.052;2023-04-06T09:14:16;4.40;99.90
47540;DHT22;33280;52.152;21.052;2023-04-06T09:16:44;4.50;99.90
47540;DHT22;33280;52.152;21.052;2023-04-06T09:19:12;4.50;99.90
47540;DHT22;33280;52.152;21.052;2023-04-06T09:21:39;4.40;99.90
47540;DHT22;33280;52.152;21.052;2023-04-06T09:24:08;4.40;99.90
47540;DHT22;33280;52.152;21.052;2023-04-06T09:26:46;4.40;99.90
47540;DHT22;33280;52.152;21.052;2023-04-06T09:29:24;4.20;99.90
47540;DHT22;33280;52.152;21.052;2023-04-06T09:32:02;4.00;99.90
47540;DHT22;33280;52.152;21.052;2023-04-06T09:34:30;4.10;99.90
47540;DHT22;33280;52.152;21.052;2023-04-06T09:36:57;4.00;99.90
47540;DHT22;33280;52.152;21.052;2023-04-06T09:39:26;4.00;99.90
47540;DHT22;33280;52.152;21.052;2023-04-06T09:41:56;3.90;99.90
47540;DHT22;33280;52.152;21.052;2023-04-06T09:44:23;3.70;99.90
47540;DHT22;33280;52.152;21.052;2023-04-06T09:46:53;3.70;99.90
47540;DHT22;33280;52.152;21.052;2023-04-06T09:49:31;3.70;99.90
47540;DHT22;33280;52.152;21.052;2023-04-06T09:52:02;3.70;99.90
47540;DHT22;33280;52.152;21.052;2023-04-06T09:54:30;3.60;99.90
47540;DHT22;33280;52.152;21.052;2023-04-06T09:57:29;3.60;99.90
47540;DHT22;33280;52.152;21.052;2023-04-06T10:03:17;3.50;99.90
47540;DHT22;33280;52.152;21.052;2023-04-06T10:05:54;3.40;99.90
47540;DHT22;33280;52.152;21.052;2023-04-06T10:08:24;3.30;99.90
47540;DHT22;33280;52.152;21.052;2023-04-06T10:10:59;3.20;99.90
47540;DHT22;33280;52.152;21.052;2023-04-06T10:13:27;3.30;99.90
47540;DHT22;33280;52.152;21.052;2023-04-06T10:15:54;3.30;99.90
47540;DHT22;33280;52.152;21.052;2023-04-06T10:18:22;3.50;99.90
47540;DHT22;33280;52.152;21.052;2023-04-06T10:21:08;3.50;99.90
47540;DHT22;33280;52.152;21.052;2023-04-06T10:26:13;3.60;99.90
47540;DHT22;33280;52.152;21.052;2023-04-06T10:28:42;3.50;99.90
47540;DHT22;33280;52.152;21.052;2023-04-06T10:31:09;3.50;99.90
47540;DHT22;33280;52.152;21.052;2023-04-06T10:33:36;3.50;99.90
47540;DHT22;33280;52.152;21.052;2023-04-06T10:36:33;3.40;99.90
47540;DHT22;33280;52.152;21.052;2023-04-06T10:39:03;3.40;99.90
47540;DHT22;33280;52.152;21.052;2023-04-06T10:41:44;3.40;99.90
47540;DHT22;33280;52.152;21.052;2023-04-06T10:44:22;3.30;99.90
47540;DHT22;33280;52.152;21.052;2023-04-06T10:46:57;3.30;99.90
47540;DHT22;33280;52.152;21.052;2023-04-06T10:49:27;3.30;99.90
47540;DHT22;33280;52.152;21.052;2023-04-06T10:51:55;3.20;99.90
47540;DHT22;33280;52.152;21.052;2023-04-06T10:54:24;3.20;99.90
47540;DHT22;33280;52.152;21.052;2023-04-06T10:56:52;3.10;99.90
47540;DHT22;33280;52.152;21.052;2023-04-06T10:59:20;3.10;99.90
47540;DHT22;33280;52.152;21.052;2023-04-06T11:01:48;3.20;99.90
47540;DHT22;33280;52.152;21.052;2023-04-06T11:04:20;3.10;99.90
47540;DHT22;33280;52.152;21.052;2023-04-06T11:06:50;3.20;99.90
47540;DHT22;33280;52.152;21.052;2023-04-06T11:11:53;3.30;99.90
47540;DHT22;33280;52.152;21.052;2023-04-06T11:14:23;3.20;99.90
47540;DHT22;33280;52.152;21.052;2023-04-06T11:16:50;3.20;99.90
47540;DHT22;33280;52.152;21.052;2023-04-06T11:19:18;3.30;99.90
47540;DHT22;33280;52.152;21.052;2023-04-06T11:21:49;3.30;99.90
47540;DHT22;33280;52.152;21.052;2023-04-06T11:24:20;3.30;99.90
47540;DHT22;33280;52.152;21.052;2023-04-06T11:26:48;3.30;99.90
47540;DHT22;33280;52.152;21.052;2023-04-06T11:29:22;3.30;99.90
47540;DHT22;33280;52.152;21.052;2023-04-06T11:31:52;3.20;99.90
47540;DHT22;33280;52.152;21.052;2023-04-06T11:34:20;3.10;99.90
47540;DHT22;33280;52.152;21.052;2023-04-06T11:36:57;3.00;99.90
47540;DHT22;33280;52.152;21.052;2023-04-06T11:39:26;3.10;99.90
47540;DHT22;33280;52.152;21.052;2023-04-06T11:41:58;3.10;99.90
47540;DHT22;33280;52.152;21.052;2023-04-06T11:44:36;3.10;99.90
47540;DHT22;33280;52.152;21.052;2023-04-06T11:47:07;3.20;99.90
47540;DHT22;33280;52.152;21.052;2023-04-06T11:49:37;3.30;99.90
47540;DHT22;33280;52.152;21.052;2023-04-06T11:52:18;3.20;99.90
47540;DHT22;33280;52.152;21.052;2023-04-06T11:54:47;3.20;99.90
47540;DHT22;33280;52.152;21.052;2023-04-06T11:57:19;3.20;99.90
47540;DHT22;33280;52.152;21.052;2023-04-06T11:59:46;3.30;99.90
47540;DHT22;33280;52.152;21.052;2023-04-06T12:02:13;3.30;99.90
47540;DHT22;33280;52.152;21.052;2023-04-06T12:04:40;3.40;99.90
47540;DHT22;33280;52.152;21.052;2023-04-06T12:07:07;3.40;99.90
47540;DHT22;33280;52.152;21.052;2023-04-06T12:09:35;3.30;99.90
47540;DHT22;33280;52.152;21.052;2023-04-06T12:12:08;3.50;99.90
47540;DHT22;33280;52.152;21.052;2023-04-06T12:14:38;3.50;99.90
47540;DHT22;33280;52.152;21.052;2023-04-06T12:17:05;3.60;99.90
47540;DHT22;33280;52.152;21.052;2023-04-06T12:19:32;3.50;99.90
47540;DHT22;33280;52.152;21.052;2023-04-06T12:21:59;3.50;99.90
47540;DHT22;33280;52.152;21.052;2023-04-06T12:24:27;3.60;99.90
47540;DHT22;33280;52.152;21.052;2023-04-06T12:26:58;3.60;99.90
47540;DHT22;33280;52.152;21.052;2023-04-06T12:29:36;3.60;99.90
47540;DHT22;33280;52.152;21.052;2023-04-06T12:32:03;3.50;99.90
47540;DHT22;33280;52.152;21.052;2023-04-06T12:34:30;3.60;99.90
47540;DHT22;33280;52.152;21.052;2023-04-06T12:36:56;3.60;99.90
47540;DHT22;33280;52.152;21.052;2023-04-06T12:39:24;3.60;99.90
47540;DHT22;33280;52.152;21.052;2023-04-06T12:41:52;3.70;99.90
47540;DHT22;33280;52.152;21.052;2023-04-06T12:44:19;3.70;99.90
47540;DHT22;33280;52.152;21.052;2023-04-06T12:46:46;3.60;99.90
47540;DHT22;33280;52.152;21.052;2023-04-06T12:49:13;3.60;99.90
47540;DHT22;33280;52.152;21.052;2023-04-06T12:51:40;3.50;99.90
47540;DHT22;33280;52.152;21.052;2023-04-06T12:54:07;3.60;99.90
47540;DHT22;33280;52.152;21.052;2023-04-06T12:56:34;3.60;99.90
47540;DHT22;33280;52.152;21.052;2023-04-06T12:59:01;3.70;99.90
47540;DHT22;33280;52.152;21.052;2023-04-06T13:01:28;3.80;99.90
47540;DHT22;33280;52.152;21.052;2023-04-06T13:03:56;3.70;99.90
47540;DHT22;33280;52.152;21.052;2023-04-06T13:06:24;3.70;99.90
47540;DHT22;33280;52.152;21.052;2023-04-06T13:08:59;3.70;99.90
47540;DHT22;33280;52.152;21.052;2023-04-06T13:18:45;3.40;99.90
47540;DHT22;33280;52.152;21.052;2023-04-06T13:21:16;3.20;99.90
47540;DHT22;33280;52.152;21.052;2023-04-06T13:23:43;3.20;99.90
47540;DHT22;33280;52.152;21.052;2023-04-06T13:26:11;3.20;99.90
47540;DHT22;33280;52.152;21.052;2023-04-06T13:28:40;3.20;99.90
47540;DHT22;33280;52.152;21.052;2023-04-06T13:31:07;3.20;99.90
47540;DHT22;33280;52.152;21.052;2023-04-06T13:33:35;3.20;99.90
47540;DHT22;33280;52.152;21.052;2023-04-06T13:36:03;3.20;99.90
47540;DHT22;33280;52.152;21.052;2023-04-06T13:38:30;3.20;99.90
47540;DHT22;33280;52.152;21.052;2023-04-06T13:40:57;3.20;99.90
47540;DHT22;33280;52.152;21.052;2023-04-06T13:43:36;3.20;99.90
47540;DHT22;33280;52.152;21.052;2023-04-06T13:46:03;3.20;99.90
47540;DHT22;33280;52.152;21.052;2023-04-06T13:48:48;3.20;99.90
47540;DHT22;33280;52.152;21.052;2023-04-06T13:51:17;3.20;99.90
47540;DHT22;33280;52.152;21.052;2023-04-06T13:53:44;3.20;99.90
47540;DHT22;33280;52.152;21.052;2023-04-06T13:56:13;3.20;99.90
47540;DHT22;33280;52.152;21.052;2023-04-06T13:58:40;3.20;99.90
47540;DHT22;33280;52.152;21.052;2023-04-06T14:01:08;3.20;99.90
47540;DHT22;33280;52.152;21.052;2023-04-06T14:03:37;3.10;99.90
47540;DHT22;33280;52.152;21.052;2023-04-06T14:06:13;3.10;99.90
47540;DHT22;33280;52.152;21.052;2023-04-06T14:08:43;3.10;99.90
47540;DHT22;33280;52.152;21.052;2023-04-06T14:11:13;3.00;99.90
47540;DHT22;33280;52.152;21.052;2023-04-06T14:13:40;3.00;99.90
47540;DHT22;33280;52.152;21.052;2023-04-06T14:16:08;3.00;99.90
47540;DHT22;33280;52.152;21.052;2023-04-06T14:18:36;3.10;99.90
47540;DHT22;33280;52.152;21.052;2023-04-06T14:21:03;3.10;99.90
47540;DHT22;33280;52.152;21.052;2023-04-06T14:23:33;3.10;99.90
47540;DHT22;33280;52.152;21.052;2023-04-06T14:26:08;3.10;99.90
47540;DHT22;33280;52.152;21.052;2023-04-06T14:28:35;3.10;99.90
47540;DHT22;33280;52.152;21.052;2023-04-06T14:31:10;3.20;99.90
47540;DHT22;33280;52.152;21.052;2023-04-06T14:33:39;3.20;99.90
47540;DHT22;33280;52.152;21.052;2023-04-06T14:36:06;3.20;99.90
47540;DHT22;33280;52.152;21.052;2023-04-06T14:38:36;3.20;99.90
47540;DHT22;33280;52.152;21.052;2023-04-06T14:41:08;3.30;99.90
47540;DHT22;33280;52.152;21.052;2023-04-06T14:43:35;3.20;99.90
47540;DHT22;33280;52.152;21.052;2023-04-06T14:46:02;3.20;99.90
47540;DHT22;33280;52.152;21.052;2023-04-06T14:48:32;3.20;99.90
47540;DHT22;33280;52.152;21.052;2023-04-06T14:50:58;3.20;99.90
47540;DHT22;33280;52.152;21.052;2023-04-06T14:53:26;3.20;99.90
47540;DHT22;33280;52.152;21.052;2023-04-06T14:55:53;3.30;99.90
47540;DHT22;33280;52.152;21.052;2023-04-06T14:58:22;3.30;99.90
47540;DHT22;33280;52.152;21.052;2023-04-06T15:00:49;3.30;99.90
47540;DHT22;33280;52.152;21.052;2023-04-06T15:03:21;3.30;99.90
47540;DHT22;33280;52.152;21.052;2023-04-06T15:05:49;3.40;99.90
47540;DHT22;33280;52.152;21.052;2023-04-06T15:08:16;3.40;99.90
47540;DHT22;33280;52.152;21.052;2023-04-06T15:10:43;3.40;99.90
47540;DHT22;33280;52.152;21.052;2023-04-06T15:13:10;3.50;99.90
47540;DHT22;33280;52.152;21.052;2023-04-06T15:15:37;3.40;99.90
47540;DHT22;33280;52.152;21.052;2023-04-06T15:18:04;3.40;99.90
47540;DHT22;33280;52.152;21.052;2023-04-06T15:20:31;3.40;99.90
47540;DHT22;33280;52.152;21.052;2023-04-06T15:23:03;3.30;99.90
47540;DHT22;33280;52.152;21.052;2023-04-06T15:25:47;3.30;99.90
47540;DHT22;33280;52.152;21.052;2023-04-06T15:28:20;3.30;99.90
47540;DHT22;33280;52.152;21.052;2023-04-06T15:30:56;3.30;99.90
47540;DHT22;33280;52.152;21.052;2023-04-06T15:33:24;3.30;99.90
47540;DHT22;33280;52.152;21.052;2023-04-06T15:36:06;3.30;99.90
47540;DHT22;33280;52.152;21.052;2023-04-06T15:38:39;3.20;99.90
47540;DHT22;33280;52.152;21.052;2023-04-06T15:41:06;3.30;99.90
47540;DHT22;33280;52.152;21.052;2023-04-06T15:43:49;3.30;99.90
47540;DHT22;33280;52.152;21.052;2023-04-06T15:48:54;3.20;99.90
47540;DHT22;33280;52.152;21.052;2023-04-06T15:51:21;3.30;99.90
47540;DHT22;33280;52.152;21.052;2023-04-06T15:53:58;3.20;99.90
47540;DHT22;33280;52.152;21.052;2023-04-06T15:56:31;3.20;99.90
47540;DHT22;33280;52.152;21.052;2023-04-06T15:58:58;3.20;99.90